sensor_id;sensor_type;location;lat;lon;timestamp;temperature;humidity
3055;DHT22;1537;52.018;8.542;2022-10-30T00:00:03;16.40;64.10
3055;DHT22;1537;52.018;8.542;2022-10-30T00:03:33;16.40;63.30
3055;DHT22;1537;52.018;8.542;2022-10-30T00:06:56;16.40;63.50
3055;DHT22;1537;52.018;8.542;2022-10-30T00:10:20;16.50;62.70
3055;DHT22;1537;52.018;8.542;2022-10-30T00:13:44;16.50;62.20
3055;DHT22;1537;52.018;8.542;2022-10-30T00:17:09;16.60;61.50
3055;DHT22;1537;52.018;8.542;2022-10-30T00:20:35;16.60;60.80
3055;DHT22;1537;52.018;8.542;2022-10-30T00:23:59;16.60;60.50
3055;DHT22;1537;52.018;8.542;2022-10-30T00:27:22;16.70;59.60
3055;DHT22;1537;52.018;8.542;2022-10-30T00:30:46;16.70;60.20
3055;DHT22;1537;52.018;8.542;2022-10-30T00:34:11;16.70;59.60
3055;DHT22;1537;52.018;8.542;2022-10-30T00:37:35;16.70;59.30
3055;DHT22;1537;52.018;8.542;2022-10-30T00:40:59;16.70;59.60
3055;DHT22;1537;52.018;8.542;2022-10-30T00:44:37;16.70;59.30
3055;DHT22;1537;52.018;8.542;2022-10-30T00:48:03;16.80;59.70
3055;DHT22;1537;52.018;8.542;2022-10-30T00:51:29;16.70;59.70
3055;DHT22;1537;52.018;8.542;2022-10-30T00:54:55;16.70;58.50
3055;DHT22;1537;52.018;8.542;2022-10-30T00:58:23;16.70;58.50
3055;DHT22;1537;52.018;8.542;2022-10-30T01:01:49;16.70;58.30
3055;DHT22;1537;52.018;8.542;2022-10-30T01:05:16;16.70;58.60
3055;DHT22;1537;52.018;8.542;2022-10-30T01:08:43;16.80;57.70
3055;DHT22;1537;52.018;8.542;2022-10-30T01:12:07;16.80;58.10
3055;DHT22;1537;52.018;8.542;2022-10-30T01:15:36;16.80;58.30
3055;DHT22;1537;52.018;8.542;2022-10-30T01:19:09;16.80;58.10
3055;DHT22;1537;52.018;8.542;2022-10-30T01:22:48;16.80;57.60
3055;DHT22;1537;52.018;8.542;2022-10-30T01:26:22;16.80;57.90
3055;DHT22;1537;52.018;8.542;2022-10-30T01:29:58;17.00;56.90
3055;DHT22;1537;52.018;8.542;2022-10-30T01:33:32;17.00;55.80
3055;DHT22;1537;52.018;8.542;2022-10-30T01:37:02;17.10;56.40
3055;DHT22;1537;52.018;8.542;2022-10-30T01:40:29;17.00;56.70
3055;DHT22;1537;52.018;8.542;2022-10-30T01:43:58;17.00;56.70
3055;DHT22;1537;52.018;8.542;2022-10-30T01:47:30;17.00;56.50
3055;DHT22;1537;52.018;8.542;2022-10-30T01:51:04;17.10;56.20
3055;DHT22;1537;52.018;8.542;2022-10-30T01:54:36;17.00;57.20
3055;DHT22;1537;52.018;8.542;2022-10-30T01:58:06;16.90;57.20
3055;DHT22;1537;52.018;8.542;2022-10-30T02:01:33;16.90;57.40
3055;DHT22;1537;52.018;8.542;2022-10-30T02:04:58;16.80;57.90
3055;DHT22;1537;52.018;8.542;2022-10-30T02:08:22;16.80;58.20
3055;DHT22;1537;52.018;8.542;2022-10-30T02:11:47;16.70;57.70
3055;DHT22;1537;52.018;8.542;2022-10-30T02:15:12;16.60;57.80
3055;DHT22;1537;52.018;8.542;2022-10-30T02:18:37;16.60;58.10
3055;DHT22;1537;52.018;8.542;2022-10-30T02:22:03;16.60;58.50
3055;DHT22;1537;52.018;8.542;2022-10-30T02:25:27;16.70;58.00
3055;DHT22;1537;52.018;8.542;2022-10-30T02:28:51;16.70;58.30
3055;DHT22;1537;52.018;8.542;2022-10-30T02:32:14;16.70;58.10
3055;DHT22;1537;52.018;8.542;2022-10-30T02:35:38;16.70;58.10
3055;DHT22;1537;52.018;8.542;2022-10-30T02:39:04;16.70;58.20
3055;DHT22;1537;52.018;8.542;2022-10-30T02:42:30;16.70;57.90
3055;DHT22;1537;52.018;8.542;2022-10-30T02:45:54;16.70;58.20
3055;DHT22;1537;52.018;8.542;2022-10-30T02:49:17;16.70;58.40
3055;DHT22;1537;52.018;8.542;2022-10-30T02:52:41;16.70;58.60
3055;DHT22;1537;52.018;8.542;2022-10-30T02:56:08;16.60;58.50
3055;DHT22;1537;52.018;8.542;2022-10-30T02:59:34;16.60;58.90
3055;DHT22;1537;52.018;8.542;2022-10-30T03:02:57;16.50;59.00
3055;DHT22;1537;52.018;8.542;2022-10-30T03:06:21;16.50;59.20
3055;DHT22;1537;52.018;8.542;2022-10-30T03:09:45;16.50;59.20
3055;DHT22;1537;52.018;8.542;2022-10-30T03:13:11;16.40;59.20
3055;DHT22;1537;52.018;8.542;2022-10-30T03:16:35;16.40;59.30
3055;DHT22;1537;52.018;8.542;2022-10-30T03:19:59;16.40;59.70
3055;DHT22;1537;52.018;8.542;2022-10-30T03:23:23;16.30;59.70
3055;DHT22;1537;52.018;8.542;2022-10-30T03:26:47;16.30;59.60
3055;DHT22;1537;52.018;8.542;2022-10-30T03:30:12;16.20;59.40
3055;DHT22;1537;52.018;8.542;2022-10-30T03:33:37;16.20;59.30
3055;DHT22;1537;52.018;8.542;2022-10-30T03:37:00;16.10;59.60
3055;DHT22;1537;52.018;8.542;2022-10-30T03:40:24;16.10;59.70
3055;DHT22;1537;52.018;8.542;2022-10-30T03:43:48;16.10;60.10
3055;DHT22;1537;52.018;8.542;2022-10-30T03:47:13;16.00;60.20
3055;DHT22;1537;52.018;8.542;2022-10-30T03:50:39;16.00;61.00
3055;DHT22;1537;52.018;8.542;2022-10-30T03:54:02;15.90;61.00
3055;DHT22;1537;52.018;8.542;2022-10-30T03:57:27;15.90;61.60
3055;DHT22;1537;52.018;8.542;2022-10-30T04:01:09;15.80;61.50
3055;DHT22;1537;52.018;8.542;2022-10-30T04:04:38;15.90;61.60
3055;DHT22;1537;52.018;8.542;2022-10-30T04:08:04;15.80;60.80
3055;DHT22;1537;52.018;8.542;2022-10-30T04:11:31;15.80;62.10
3055;DHT22;1537;52.018;8.542;2022-10-30T04:14:55;15.70;61.60
3055;DHT22;1537;52.018;8.542;2022-10-30T04:18:19;15.80;60.90
3055;DHT22;1537;52.018;8.542;2022-10-30T04:21:44;15.80;61.60
3055;DHT22;1537;52.018;8.542;2022-10-30T04:25:09;15.70;61.40
3055;DHT22;1537;52.018;8.542;2022-10-30T04:28:33;15.70;61.60
3055;DHT22;1537;52.018;8.542;2022-10-30T04:31:58;15.80;61.90
3055;DHT22;1537;52.018;8.542;2022-10-30T04:35:23;15.70;61.70
3055;DHT22;1537;52.018;8.542;2022-10-30T04:38:48;15.80;61.50
3055;DHT22;1537;52.018;8.542;2022-10-30T04:42:14;15.80;61.30
3055;DHT22;1537;52.018;8.542;2022-10-30T04:45:38;15.90;61.50
3055;DHT22;1537;52.018;8.542;2022-10-30T04:49:02;15.80;61.70
3055;DHT22;1537;52.018;8.542;2022-10-30T04:52:26;15.80;61.80
3055;DHT22;1537;52.018;8.542;2022-10-30T04:55:53;15.90;61.70
3055;DHT22;1537;52.018;8.542;2022-10-30T04:59:18;15.80;61.60
3055;DHT22;1537;52.018;8.542;2022-10-30T05:02:42;15.80;61.50
3055;DHT22;1537;52.018;8.542;2022-10-30T05:06:19;15.70;61.50
3055;DHT22;1537;52.018;8.542;2022-10-30T05:09:44;15.70;61.80
3055;DHT22;1537;52.018;8.542;2022-10-30T05:13:10;15.60;61.70
3055;DHT22;1537;52.018;8.542;2022-10-30T05:16:36;15.50;61.50
3055;DHT22;1537;52.018;8.542;2022-10-30T05:20:00;15.50;61.90
3055;DHT22;1537;52.018;8.542;2022-10-30T05:23:24;15.40;62.20
3055;DHT22;1537;52.018;8.542;2022-10-30T05:26:48;15.30;63.40
3055;DHT22;1537;52.018;8.542;2022-10-30T05:30:14;15.20;63.00
3055;DHT22;1537;52.018;8.542;2022-10-30T05:33:38;15.20;63.40
3055;DHT22;1537;52.018;8.542;2022-10-30T05:37:02;15.10;63.60
3055;DHT22;1537;52.018;8.542;2022-10-30T05:40:25;15.00;63.70
3055;DHT22;1537;52.018;8.542;2022-10-30T05:43:49;15.00;63.60
3055;DHT22;1537;52.018;8.542;2022-10-30T05:47:15;14.90;63.80
3055;DHT22;1537;52.018;8.542;2022-10-30T05:50:42;14.90;63.60
3055;DHT22;1537;52.018;8.542;2022-10-30T05:54:17;14.90;63.60
3055;DHT22;1537;52.018;8.542;2022-10-30T05:58:02;14.80;63.70
3055;DHT22;1537;52.018;8.542;2022-10-30T06:01:28;14.80;63.30
3055;DHT22;1537;52.018;8.542;2022-10-30T06:04:55;14.80;63.20
3055;DHT22;1537;52.018;8.542;2022-10-30T06:08:19;14.80;63.00
3055;DHT22;1537;52.018;8.542;2022-10-30T06:11:45;14.80;63.00
3055;DHT22;1537;52.018;8.542;2022-10-30T06:15:10;14.80;62.60
3055;DHT22;1537;52.018;8.542;2022-10-30T06:18:33;14.90;62.60
3055;DHT22;1537;52.018;8.542;2022-10-30T06:22:05;14.90;62.50
3055;DHT22;1537;52.018;8.542;2022-10-30T06:25:36;14.80;62.50
3055;DHT22;1537;52.018;8.542;2022-10-30T06:29:28;14.90;62.40
3055;DHT22;1537;52.018;8.542;2022-10-30T06:32:55;14.90;62.30
3055;DHT22;1537;52.018;8.542;2022-10-30T06:36:19;15.00;62.00
3055;DHT22;1537;52.018;8.542;2022-10-30T06:39:45;15.00;62.20
3055;DHT22;1537;52.018;8.542;2022-10-30T06:43:38;15.10;62.10
3055;DHT22;1537;52.018;8.542;2022-10-30T06:47:06;15.10;61.80
3055;DHT22;1537;52.018;8.542;2022-10-30T06:50:30;15.10;62.10
3055;DHT22;1537;52.018;8.542;2022-10-30T06:53:54;15.20;62.50
3055;DHT22;1537;52.018;8.542;2022-10-30T06:57:35;15.20;62.10
3055;DHT22;1537;52.018;8.542;2022-10-30T07:01:07;15.20;62.10
3055;DHT22;1537;52.018;8.542;2022-10-30T07:04:31;15.20;62.20
3055;DHT22;1537;52.018;8.542;2022-10-30T07:07:56;15.30;61.90
3055;DHT22;1537;52.018;8.542;2022-10-30T07:11:19;15.40;61.60
3055;DHT22;1537;52.018;8.542;2022-10-30T07:15:14;15.50;61.90
3055;DHT22;1537;52.018;8.542;2022-10-30T07:18:58;15.60;61.20
3055;DHT22;1537;52.018;8.542;2022-10-30T07:22:26;15.70;61.60
3055;DHT22;1537;52.018;8.542;2022-10-30T07:25:51;15.90;60.80
3055;DHT22;1537;52.018;8.542;2022-10-30T07:29:25;15.90;60.80
3055;DHT22;1537;52.018;8.542;2022-10-30T07:33:15;16.50;61.20
3055;DHT22;1537;52.018;8.542;2022-10-30T07:36:58;18.30;58.30
3055;DHT22;1537;52.018;8.542;2022-10-30T07:40:30;20.10;52.80
3055;DHT22;1537;52.018;8.542;2022-10-30T07:44:02;21.40;50.00
3055;DHT22;1537;52.018;8.542;2022-10-30T07:47:40;22.40;48.50
3055;DHT22;1537;52.018;8.542;2022-10-30T07:51:25;23.50;45.80
3055;DHT22;1537;52.018;8.542;2022-10-30T07:54:49;24.60;43.80
3055;DHT22;1537;52.018;8.542;2022-10-30T07:58:33;25.40;41.90
3055;DHT22;1537;52.018;8.542;2022-10-30T08:02:25;26.00;41.00
3055;DHT22;1537;52.018;8.542;2022-10-30T08:06:07;26.90;38.60
3055;DHT22;1537;52.018;8.542;2022-10-30T08:09:39;27.30;37.70
3055;DHT22;1537;52.018;8.542;2022-10-30T08:13:03;28.10;36.40
3055;DHT22;1537;52.018;8.542;2022-10-30T08:16:27;28.80;35.10
3055;DHT22;1537;52.018;8.542;2022-10-30T08:19:52;30.10;33.80
3055;DHT22;1537;52.018;8.542;2022-10-30T08:23:17;30.90;32.20
3055;DHT22;1537;52.018;8.542;2022-10-30T08:26:44;31.20;31.40
3055;DHT22;1537;52.018;8.542;2022-10-30T08:30:08;32.20;30.70
3055;DHT22;1537;52.018;8.542;2022-10-30T08:33:32;33.20;29.50
3055;DHT22;1537;52.018;8.542;2022-10-30T08:37:16;33.30;29.30
3055;DHT22;1537;52.018;8.542;2022-10-30T08:40:40;33.50;29.00
3055;DHT22;1537;52.018;8.542;2022-10-30T08:44:05;33.70;28.70
3055;DHT22;1537;52.018;8.542;2022-10-30T08:47:55;34.10;28.30
3055;DHT22;1537;52.018;8.542;2022-10-30T08:51:19;34.50;27.50
3055;DHT22;1537;52.018;8.542;2022-10-30T08:54:43;34.60;27.40
3055;DHT22;1537;52.018;8.542;2022-10-30T08:58:07;35.20;27.00
3055;DHT22;1537;52.018;8.542;2022-10-30T09:01:33;35.10;26.80
3055;DHT22;1537;52.018;8.542;2022-10-30T09:05:10;34.90;27.20
3055;DHT22;1537;52.018;8.542;2022-10-30T09:08:52;35.40;26.70
3055;DHT22;1537;52.018;8.542;2022-10-30T09:12:42;35.80;26.10
3055;DHT22;1537;52.018;8.542;2022-10-30T09:16:06;36.00;25.80
3055;DHT22;1537;52.018;8.542;2022-10-30T09:19:33;35.70;26.10
3055;DHT22;1537;52.018;8.542;2022-10-30T09:22:57;36.50;25.40
3055;DHT22;1537;52.018;8.542;2022-10-30T09:26:21;36.40;25.50
3055;DHT22;1537;52.018;8.542;2022-10-30T09:30:04;36.30;25.40
3055;DHT22;1537;52.018;8.542;2022-10-30T09:33:33;35.90;25.60
3055;DHT22;1537;52.018;8.542;2022-10-30T09:37:16;34.50;26.80
3055;DHT22;1537;52.018;8.542;2022-10-30T09:40:57;34.10;26.90
3055;DHT22;1537;52.018;8.542;2022-10-30T09:44:33;33.90;27.50
3055;DHT22;1537;52.018;8.542;2022-10-30T09:48:14;33.70;27.70
3055;DHT22;1537;52.018;8.542;2022-10-30T09:52:07;34.30;27.20
3055;DHT22;1537;52.018;8.542;2022-10-30T09:55:40;35.00;26.70
3055;DHT22;1537;52.018;8.542;2022-10-30T09:59:13;33.30;28.10
3055;DHT22;1537;52.018;8.542;2022-10-30T10:02:52;32.70;28.70
3055;DHT22;1537;52.018;8.542;2022-10-30T10:06:24;33.40;28.10
3055;DHT22;1537;52.018;8.542;2022-10-30T10:10:00;31.60;29.40
3055;DHT22;1537;52.018;8.542;2022-10-30T10:13:48;30.20;31.40
3055;DHT22;1537;52.018;8.542;2022-10-30T10:17:18;30.10;31.60
3055;DHT22;1537;52.018;8.542;2022-10-30T10:20:45;30.70;31.20
3055;DHT22;1537;52.018;8.542;2022-10-30T10:24:14;31.30;30.50
3055;DHT22;1537;52.018;8.542;2022-10-30T10:27:50;32.00;30.10
3055;DHT22;1537;52.018;8.542;2022-10-30T10:31:23;32.10;30.00
3055;DHT22;1537;52.018;8.542;2022-10-30T10:35:01;31.60;30.60
3055;DHT22;1537;52.018;8.542;2022-10-30T10:38:40;30.80;31.60
3055;DHT22;1537;52.018;8.542;2022-10-30T10:42:17;29.20;34.60
3055;DHT22;1537;52.018;8.542;2022-10-30T10:45:47;28.70;34.90
3055;DHT22;1537;52.018;8.542;2022-10-30T10:49:26;27.80;35.70
3055;DHT22;1537;52.018;8.542;2022-10-30T10:52:57;26.70;37.60
3055;DHT22;1537;52.018;8.542;2022-10-30T10:56:26;25.90;38.60
3055;DHT22;1537;52.018;8.542;2022-10-30T10:59:53;25.10;40.40
3055;DHT22;1537;52.018;8.542;2022-10-30T11:03:22;24.80;41.20
3055;DHT22;1537;52.018;8.542;2022-10-30T11:06:51;24.50;41.70
3055;DHT22;1537;52.018;8.542;2022-10-30T11:10:17;24.20;42.20
3055;DHT22;1537;52.018;8.542;2022-10-30T11:13:42;24.20;42.60
3055;DHT22;1537;52.018;8.542;2022-10-30T11:17:14;23.80;42.70
3055;DHT22;1537;52.018;8.542;2022-10-30T11:20:47;23.40;43.30
3055;DHT22;1537;52.018;8.542;2022-10-30T11:24:28;23.20;43.60
3055;DHT22;1537;52.018;8.542;2022-10-30T11:27:54;23.30;44.20
3055;DHT22;1537;52.018;8.542;2022-10-30T11:31:20;23.10;43.80
3055;DHT22;1537;52.018;8.542;2022-10-30T11:34:44;23.20;44.10
3055;DHT22;1537;52.018;8.542;2022-10-30T11:38:12;23.20;44.50
3055;DHT22;1537;52.018;8.542;2022-10-30T11:41:38;23.30;44.30
3055;DHT22;1537;52.018;8.542;2022-10-30T11:45:02;23.20;44.30
3055;DHT22;1537;52.018;8.542;2022-10-30T11:48:29;23.20;44.00
3055;DHT22;1537;52.018;8.542;2022-10-30T11:51:53;23.40;44.30
3055;DHT22;1537;52.018;8.542;2022-10-30T11:55:19;23.20;44.60
3055;DHT22;1537;52.018;8.542;2022-10-30T11:58:45;23.10;44.70
3055;DHT22;1537;52.018;8.542;2022-10-30T12:02:21;23.10;44.60
3055;DHT22;1537;52.018;8.542;2022-10-30T12:05:45;23.00;44.40
3055;DHT22;1537;52.018;8.542;2022-10-30T12:09:14;22.90;44.60
3055;DHT22;1537;52.018;8.542;2022-10-30T12:12:42;22.90;44.80
3055;DHT22;1537;52.018;8.542;2022-10-30T12:16:14;22.90;44.60
3055;DHT22;1537;52.018;8.542;2022-10-30T12:19:44;22.90;44.60
3055;DHT22;1537;52.018;8.542;2022-10-30T12:23:10;23.10;45.00
3055;DHT22;1537;52.018;8.542;2022-10-30T12:26:35;23.20;44.10
3055;DHT22;1537;52.018;8.542;2022-10-30T12:30:05;23.10;43.40
3055;DHT22;1537;52.018;8.542;2022-10-30T12:33:35;23.20;43.40
3055;DHT22;1537;52.018;8.542;2022-10-30T12:37:04;23.30;44.30
3055;DHT22;1537;52.018;8.542;2022-10-30T12:40:30;23.30;44.10
3055;DHT22;1537;52.018;8.542;2022-10-30T12:43:57;23.40;44.00
3055;DHT22;1537;52.018;8.542;2022-10-30T12:47:27;23.40;43.90
3055;DHT22;1537;52.018;8.542;2022-10-30T12:51:02;23.20;43.90
3055;DHT22;1537;52.018;8.542;2022-10-30T12:54:32;23.20;44.30
3055;DHT22;1537;52.018;8.542;2022-10-30T12:58:03;23.40;44.40
3055;DHT22;1537;52.018;8.542;2022-10-30T13:01:34;23.40;44.10
3055;DHT22;1537;52.018;8.542;2022-10-30T13:05:03;23.30;44.00
3055;DHT22;1537;52.018;8.542;2022-10-30T13:08:32;23.00;44.70
3055;DHT22;1537;52.018;8.542;2022-10-30T13:11:59;22.90;44.60
3055;DHT22;1537;52.018;8.542;2022-10-30T13:15:28;22.90;44.60
3055;DHT22;1537;52.018;8.542;2022-10-30T13:18:56;23.00;45.10
3055;DHT22;1537;52.018;8.542;2022-10-30T13:22:24;23.00;44.30
3055;DHT22;1537;52.018;8.542;2022-10-30T13:26:00;23.00;44.40
3055;DHT22;1537;52.018;8.542;2022-10-30T13:29:35;23.10;48.60
3055;DHT22;1537;52.018;8.542;2022-10-30T13:33:07;22.90;50.00
3055;DHT22;1537;52.018;8.542;2022-10-30T13:36:39;22.80;51.10
3055;DHT22;1537;52.018;8.542;2022-10-30T13:40:15;22.60;52.10
3055;DHT22;1537;52.018;8.542;2022-10-30T13:43:47;22.30;53.10
3055;DHT22;1537;52.018;8.542;2022-10-30T13:47:22;22.20;53.60
3055;DHT22;1537;52.018;8.542;2022-10-30T13:51:04;22.10;53.70
3055;DHT22;1537;52.018;8.542;2022-10-30T13:54:36;22.20;53.20
3055;DHT22;1537;52.018;8.542;2022-10-30T13:58:06;22.10;52.90
3055;DHT22;1537;52.018;8.542;2022-10-30T14:01:36;21.90;53.10
3055;DHT22;1537;52.018;8.542;2022-10-30T14:05:13;22.00;53.10
3055;DHT22;1537;52.018;8.542;2022-10-30T14:08:44;22.00;52.90
3055;DHT22;1537;52.018;8.542;2022-10-30T14:12:43;21.80;53.40
3055;DHT22;1537;52.018;8.542;2022-10-30T14:16:36;21.70;52.50
3055;DHT22;1537;52.018;8.542;2022-10-30T14:20:25;21.70;52.90
3055;DHT22;1537;52.018;8.542;2022-10-30T14:24:01;21.60;53.10
3055;DHT22;1537;52.018;8.542;2022-10-30T14:27:27;21.60;53.40
3055;DHT22;1537;52.018;8.542;2022-10-30T14:31:00;21.60;53.60
3055;DHT22;1537;52.018;8.542;2022-10-30T14:34:42;21.60;54.00
3055;DHT22;1537;52.018;8.542;2022-10-30T14:38:25;21.60;54.00
3055;DHT22;1537;52.018;8.542;2022-10-30T14:41:59;21.60;54.30
3055;DHT22;1537;52.018;8.542;2022-10-30T14:45:27;21.80;54.20
3055;DHT22;1537;52.018;8.542;2022-10-30T14:49:00;21.80;54.20
3055;DHT22;1537;52.018;8.542;2022-10-30T14:52:35;21.90;54.20
3055;DHT22;1537;52.018;8.542;2022-10-30T14:56:06;21.80;54.30
3055;DHT22;1537;52.018;8.542;2022-10-30T14:59:32;21.70;54.70
3055;DHT22;1537;52.018;8.542;2022-10-30T15:02:59;21.60;55.20
3055;DHT22;1537;52.018;8.542;2022-10-30T15:06:31;21.50;55.50
3055;DHT22;1537;52.018;8.542;2022-10-30T15:10:10;21.30;56.30
3055;DHT22;1537;52.018;8.542;2022-10-30T15:13:45;21.20;56.50
3055;DHT22;1537;52.018;8.542;2022-10-30T15:17:18;21.20;56.60
3055;DHT22;1537;52.018;8.542;2022-10-30T15:20:48;21.20;56.80
3055;DHT22;1537;52.018;8.542;2022-10-30T15:24:16;21.10;57.10
3055;DHT22;1537;52.018;8.542;2022-10-30T15:27:44;21.00;57.10
3055;DHT22;1537;52.018;8.542;2022-10-30T15:31:20;20.90;57.50
3055;DHT22;1537;52.018;8.542;2022-10-30T15:34:52;20.80;57.80
3055;DHT22;1537;52.018;8.542;2022-10-30T15:38:16;20.80;58.00
3055;DHT22;1537;52.018;8.542;2022-10-30T15:41:42;20.70;58.70
3055;DHT22;1537;52.018;8.542;2022-10-30T15:45:14;20.50;59.00
3055;DHT22;1537;52.018;8.542;2022-10-30T15:48:40;20.40;59.30
3055;DHT22;1537;52.018;8.542;2022-10-30T15:52:13;20.30;59.50
3055;DHT22;1537;52.018;8.542;2022-10-30T15:55:38;20.20;59.90
3055;DHT22;1537;52.018;8.542;2022-10-30T15:59:04;20.10;60.30
3055;DHT22;1537;52.018;8.542;2022-10-30T16:02:29;19.90;61.20
3055;DHT22;1537;52.018;8.542;2022-10-30T16:06:05;19.70;61.30
3055;DHT22;1537;52.018;8.542;2022-10-30T16:09:29;19.60;61.80
3055;DHT22;1537;52.018;8.542;2022-10-30T16:12:53;19.50;62.10
3055;DHT22;1537;52.018;8.542;2022-10-30T16:16:21;19.40;62.40
3055;DHT22;1537;52.018;8.542;2022-10-30T16:19:50;19.40;63.00
3055;DHT22;1537;52.018;8.542;2022-10-30T16:23:16;19.20;63.00
3055;DHT22;1537;52.018;8.542;2022-10-30T16:26:40;19.20;63.60
3055;DHT22;1537;52.018;8.542;2022-10-30T16:30:04;19.10;63.80
3055;DHT22;1537;52.018;8.542;2022-10-30T16:33:29;18.90;64.00
3055;DHT22;1537;52.018;8.542;2022-10-30T16:36:56;18.80;64.40
3055;DHT22;1537;52.018;8.542;2022-10-30T16:40:23;18.70;64.70
3055;DHT22;1537;52.018;8.542;2022-10-30T16:44:09;18.60;64.80
3055;DHT22;1537;52.018;8.542;2022-10-30T16:47:36;18.50;65.10
3055;DHT22;1537;52.018;8.542;2022-10-30T16:51:02;18.50;65.40
3055;DHT22;1537;52.018;8.542;2022-10-30T16:54:30;18.30;65.80
3055;DHT22;1537;52.018;8.542;2022-10-30T16:57:56;18.30;66.20
3055;DHT22;1537;52.018;8.542;2022-10-30T17:01:23;18.20;66.40
3055;DHT22;1537;52.018;8.542;2022-10-30T17:04:50;18.10;66.80
3055;DHT22;1537;52.018;8.542;2022-10-30T17:08:41;18.00;67.20
3055;DHT22;1537;52.018;8.542;2022-10-30T17:12:11;18.00;67.40
3055;DHT22;1537;52.018;8.542;2022-10-30T17:15:35;17.90;67.50
3055;DHT22;1537;52.018;8.542;2022-10-30T17:19:00;17.90;67.60
3055;DHT22;1537;52.018;8.542;2022-10-30T17:22:24;17.80;67.80
3055;DHT22;1537;52.018;8.542;2022-10-30T17:25:49;17.70;68.00
3055;DHT22;1537;52.018;8.542;2022-10-30T17:29:43;17.70;68.50
3055;DHT22;1537;52.018;8.542;2022-10-30T17:33:28;17.70;68.60
3055;DHT22;1537;52.018;8.542;2022-10-30T17:36:53;17.60;68.10
3055;DHT22;1537;52.018;8.542;2022-10-30T17:40:20;17.50;67.40
3055;DHT22;1537;52.018;8.542;2022-10-30T17:43:48;17.60;66.30
3055;DHT22;1537;52.018;8.542;2022-10-30T17:47:16;17.60;65.00
3055;DHT22;1537;52.018;8.542;2022-10-30T17:50:40;17.70;64.80
3055;DHT22;1537;52.018;8.542;2022-10-30T17:54:07;17.70;64.60
3055;DHT22;1537;52.018;8.542;2022-10-30T17:57:35;17.80;64.40
3055;DHT22;1537;52.018;8.542;2022-10-30T18:00:58;17.70;63.80
3055;DHT22;1537;52.018;8.542;2022-10-30T18:04:23;17.70;63.40
3055;DHT22;1537;52.018;8.542;2022-10-30T18:07:47;17.70;63.00
3055;DHT22;1537;52.018;8.542;2022-10-30T18:11:11;17.70;62.40
3055;DHT22;1537;52.018;8.542;2022-10-30T18:14:35;17.80;62.90
3055;DHT22;1537;52.018;8.542;2022-10-30T18:17:59;17.80;62.00
3055;DHT22;1537;52.018;8.542;2022-10-30T18:21:25;17.80;61.80
3055;DHT22;1537;52.018;8.542;2022-10-30T18:24:49;17.80;61.70
3055;DHT22;1537;52.018;8.542;2022-10-30T18:28:13;17.80;61.60
3055;DHT22;1537;52.018;8.542;2022-10-30T18:31:37;17.80;61.80
3055;DHT22;1537;52.018;8.542;2022-10-30T18:35:10;17.70;62.00
3055;DHT22;1537;52.018;8.542;2022-10-30T18:38:36;17.70;62.20
3055;DHT22;1537;52.018;8.542;2022-10-30T18:42:01;17.60;62.70
3055;DHT22;1537;52.018;8.542;2022-10-30T18:45:27;17.50;62.80
3055;DHT22;1537;52.018;8.542;2022-10-30T18:48:51;17.50;63.10
3055;DHT22;1537;52.018;8.542;2022-10-30T18:52:14;17.50;63.20
3055;DHT22;1537;52.018;8.542;2022-10-30T18:55:40;17.40;63.20
3055;DHT22;1537;52.018;8.542;2022-10-30T18:59:04;17.40;63.30
3055;DHT22;1537;52.018;8.542;2022-10-30T19:02:27;17.40;63.50
3055;DHT22;1537;52.018;8.542;2022-10-30T19:05:51;17.30;63.80
3055;DHT22;1537;52.018;8.542;2022-10-30T19:09:15;17.20;64.10
3055;DHT22;1537;52.018;8.542;2022-10-30T19:12:40;17.20;64.00
3055;DHT22;1537;52.018;8.542;2022-10-30T19:16:24;17.10;64.10
3055;DHT22;1537;52.018;8.542;2022-10-30T19:19:47;17.20;64.30
3055;DHT22;1537;52.018;8.542;2022-10-30T19:23:13;17.10;64.30
3055;DHT22;1537;52.018;8.542;2022-10-30T19:26:37;17.10;64.30
3055;DHT22;1537;52.018;8.542;2022-10-30T19:30:02;17.10;64.40
3055;DHT22;1537;52.018;8.542;2022-10-30T19:33:26;17.00;64.50
3055;DHT22;1537;52.018;8.542;2022-10-30T19:36:50;17.00;64.50
3055;DHT22;1537;52.018;8.542;2022-10-30T19:40:23;17.00;64.50
3055;DHT22;1537;52.018;8.542;2022-10-30T19:43:47;16.90;64.60
3055;DHT22;1537;52.018;8.542;2022-10-30T19:47:12;16.90;64.60
3055;DHT22;1537;52.018;8.542;2022-10-30T19:50:37;16.90;65.40
3055;DHT22;1537;52.018;8.542;2022-10-30T19:54:01;16.80;64.40
3055;DHT22;1537;52.018;8.542;2022-10-30T19:57:25;16.70;64.50
3055;DHT22;1537;52.018;8.542;2022-10-30T20:00:49;16.70;64.30
3055;DHT22;1537;52.018;8.542;2022-10-30T20:04:16;16.70;64.30
3055;DHT22;1537;52.018;8.542;2022-10-30T20:07:40;16.60;64.30
3055;DHT22;1537;52.018;8.542;2022-10-30T20:11:04;16.60;64.20
3055;DHT22;1537;52.018;8.542;2022-10-30T20:14:28;16.70;63.80
3055;DHT22;1537;52.018;8.542;2022-10-30T20:17:52;16.70;63.80
3055;DHT22;1537;52.018;8.542;2022-10-30T20:21:18;16.60;64.10
3055;DHT22;1537;52.018;8.542;2022-10-30T20:24:42;16.50;63.90
3055;DHT22;1537;52.018;8.542;2022-10-30T20:28:17;16.60;63.90
3055;DHT22;1537;52.018;8.542;2022-10-30T20:31:43;16.60;63.90
3055;DHT22;1537;52.018;8.542;2022-10-30T20:35:07;16.50;64.00
3055;DHT22;1537;52.018;8.542;2022-10-30T20:38:34;16.40;64.00
3055;DHT22;1537;52.018;8.542;2022-10-30T20:41:57;16.30;64.30
3055;DHT22;1537;52.018;8.542;2022-10-30T20:45:23;16.30;64.30
3055;DHT22;1537;52.018;8.542;2022-10-30T20:48:47;16.30;64.40
3055;DHT22;1537;52.018;8.542;2022-10-30T20:52:11;16.20;65.10
3055;DHT22;1537;52.018;8.542;2022-10-30T20:55:35;16.20;64.30
3055;DHT22;1537;52.018;8.542;2022-10-30T20:58:59;16.10;64.10
3055;DHT22;1537;52.018;8.542;2022-10-30T21:02:23;16.10;64.10
3055;DHT22;1537;52.018;8.542;2022-10-30T21:05:53;16.10;64.20
3055;DHT22;1537;52.018;8.542;2022-10-30T21:09:17;16.10;63.90
3055;DHT22;1537;52.018;8.542;2022-10-30T21:12:42;16.10;63.80
3055;DHT22;1537;52.018;8.542;2022-10-30T21:16:07;16.00;63.80
3055;DHT22;1537;52.018;8.542;2022-10-30T21:19:31;16.00;64.00
3055;DHT22;1537;52.018;8.542;2022-10-30T21:22:54;15.90;64.30
3055;DHT22;1537;52.018;8.542;2022-10-30T21:26:18;15.90;64.40
3055;DHT22;1537;52.018;8.542;2022-10-30T21:29:43;15.90;64.30
3055;DHT22;1537;52.018;8.542;2022-10-30T21:33:07;15.80;64.20
3055;DHT22;1537;52.018;8.542;2022-10-30T21:36:31;15.80;64.10
3055;DHT22;1537;52.018;8.542;2022-10-30T21:39:54;15.70;63.80
3055;DHT22;1537;52.018;8.542;2022-10-30T21:43:18;15.70;63.80
3055;DHT22;1537;52.018;8.542;2022-10-30T21:46:43;15.70;64.30
3055;DHT22;1537;52.018;8.542;2022-10-30T21:50:07;15.70;64.30
3055;DHT22;1537;52.018;8.542;2022-10-30T21:53:34;15.60;64.30
3055;DHT22;1537;52.018;8.542;2022-10-30T21:56:58;15.60;64.10
3055;DHT22;1537;52.018;8.542;2022-10-30T22:00:22;15.60;64.20
3055;DHT22;1537;52.018;8.542;2022-10-30T22:03:48;15.60;63.90
3055;DHT22;1537;52.018;8.542;2022-10-30T22:07:11;15.60;63.70
3055;DHT22;1537;52.018;8.542;2022-10-30T22:10:35;15.60;63.80
3055;DHT22;1537;52.018;8.542;2022-10-30T22:14:00;15.60;63.90
3055;DHT22;1537;52.018;8.542;2022-10-30T22:17:24;15.70;64.00
3055;DHT22;1537;52.018;8.542;2022-10-30T22:20:59;15.60;64.20
3055;DHT22;1537;52.018;8.542;2022-10-30T22:24:24;15.60;64.20
3055;DHT22;1537;52.018;8.542;2022-10-30T22:27:47;15.60;64.30
3055;DHT22;1537;52.018;8.542;2022-10-30T22:31:13;15.50;64.30
3055;DHT22;1537;52.018;8.542;2022-10-30T22:34:37;15.60;64.20
3055;DHT22;1537;52.018;8.542;2022-10-30T22:38:02;15.60;64.00
3055;DHT22;1537;52.018;8.542;2022-10-30T22:41:26;15.40;64.20